Benton, KY

10:54 AM CST on March 01, 2015 (GMT -0600)
Jason's House | Change Station
CLOSE
Current Station
Personal Weather Station
Location: Benton, KY
Elevation: 456 ft
Nearby Weather Stations

Elev 456 ft 36.85 °N, 88.35 °W | Updated 10 seconds ago

Rain
Rain
40.0 °F
Feels Like 40 °F
N
1.0
Wind Variable Wind from South
Gusts 7.0 mph

Today
High -- | Low -- °F
--% Chance of Precip.
Yesterday
High -- | Low -- °F
Precip. -- in
6:24 AM 5:47 PM
Waxing Gibbous, 86% visible
Pressure 30.35 in
Visibility 5.0 miles
Clouds Few 4300 ft
Mostly Cloudy 5000 ft
Mostly Cloudy 7000 ft
Windchill 40 °F
Dew Point 38 °F
Humidity 93%
Rainfall 0.07 in
Snow Depth Not available.
UV 3 out of 12
Pollen .80 out of 12
Air Quality Not available.
Flu Activity Not available.
METAR KCEY 011635Z AUTO 19005KT 5SM FEW043 BKN050 BKN070 03/03 A3035 RMK AO1

More Conditions Fewer Conditions

Pressure 30.35 in
Visibility 5.0 miles
Clouds Few 4300 ft
Mostly Cloudy 5000 ft
Mostly Cloudy 7000 ft
Windchill 40 °F
Dew Point 38 °F
Humidity 93%
Rainfall 0.07 in
Snow Depth Not available.
UV 3 out of 12
Pollen .80 out of 12
Air Quality Not available.
Flu Activity Not available.
METAR KCEY 011635Z AUTO 19005KT 5SM FEW043 BKN050 BKN070 03/03 A3035 RMK AO1

More Conditions Fewer Conditions

10-Day Weather Forecast

Almanac

Astronomy

Mar. 01, 2015 Rise Set
Actual Time
Civil Twilight
Nautical Twilight
Astronomical Twilight
Moon
Length of Visible Light
Length of Day
Tomorrow will be .
, % of the Moon is Illuminated

Today's Extremes

State Highs State Lows

Community

WunderPhotos

Upload Photos

1,801,451 photos uploaded!

WunderBlogs® & News

Nearby

Air Quality

  Air Quality AQ Index Pollutant
Not available.

Snow Depth

Station Depth Elevation

Earthquake Activity

City Distance Mag. Time & Date
Minimum magnitude displayed is 2.5.

Coastal Water Temperatures

Place Temperature

Nearby Weather Stations